Time;durP1;ratioP1;P1;durP2;ratioP2;P2;SDS_P1;SDS_P2;PMS_P1;PMS_P2;Temp;Humidity;BMP_temperature;BMP_pressure;BME280_temperature;BME280_humidity;BME280_pressure;Samples;Min_cycle;Max_cycle;Signal;HPM_P1;HPM_P2
2022/09/06 00:01:10;;;;;;;28.77;23.27;;;15.20;99.90;;;;;;5112902;28;20492;-57
2022/09/06 00:03:38;;;;;;;29.50;24.02;;;15.10;99.90;;;;;;5114381;28;20023;-57
2022/09/06 00:06:11;;;;;;;34.75;23.58;;;15.10;99.90;;;;;;5114475;28;20036;-57
2022/09/06 00:08:38;;;;;;;36.58;23.48;;;15.10;99.90;;;;;;5116395;28;20035;-57
2022/09/06 00:11:05;;;;;;;30.20;23.77;;;15.20;99.90;;;;;;5118421;28;20365;-57
2022/09/06 00:13:31;;;;;;;27.73;23.27;;;15.10;99.90;;;;;;5118159;28;20076;-57
2022/09/06 00:16:04;;;;;;;32.05;23.65;;;15.10;99.90;;;;;;5118472;28;20076;-57
2022/09/06 00:18:30;;;;;;;29.90;23.15;;;15.00;99.90;;;;;;5118342;28;20028;-57
2022/09/06 00:20:56;;;;;;;32.72;24.27;;;15.00;99.90;;;;;;5118481;28;20457;-57
2022/09/06 00:23:22;;;;;;;33.15;23.00;;;15.00;99.90;;;;;;5117853;28;20126;-57
2022/09/06 00:25:48;;;;;;;27.85;22.00;;;15.00;99.90;;;;;;5118159;28;20118;-57
2022/09/06 00:28:15;;;;;;;36.15;22.98;;;15.00;99.90;;;;;;5117789;28;20035;-57
2022/09/06 00:30:41;;;;;;;30.02;22.77;;;14.90;99.90;;;;;;5117993;27;20059;-57
2022/09/06 00:33:07;;;;;;;33.95;21.80;;;14.90;99.90;;;;;;5118083;28;20025;-57
2022/09/06 00:35:33;;;;;;;30.33;22.15;;;15.00;99.90;;;;;;5117783;28;20034;-57
2022/09/06 00:38:00;;;;;;;29.50;21.67;;;15.00;99.90;;;;;;5118158;28;20027;-57
2022/09/06 00:40:29;;;;;;;28.38;21.88;;;14.90;99.90;;;;;;5117711;28;20020;-57
2022/09/06 00:42:56;;;;;;;31.55;22.05;;;15.00;99.90;;;;;;5117722;28;20484;-57
2022/09/06 00:45:24;;;;;;;33.72;22.52;;;14.90;99.90;;;;;;5117682;28;20023;-57
2022/09/06 00:47:50;;;;;;;28.38;21.73;;;14.90;99.90;;;;;;5117669;28;20043;-57
2022/09/06 00:50:18;;;;;;;37.40;23.80;;;14.90;99.90;;;;;;5117478;28;20069;-57
2022/09/06 00:52:47;;;;;;;28.63;22.98;;;14.90;99.90;;;;;;5117637;28;20027;-57
2022/09/06 00:55:14;;;;;;;37.33;24.05;;;14.90;99.90;;;;;;5117429;28;20020;-57
2022/09/06 00:57:41;;;;;;;32.13;23.25;;;14.90;99.90;;;;;;5117440;28;20389;-57
2022/09/06 01:00:08;;;;;;;31.27;23.05;;;14.90;99.90;;;;;;5117354;28;20140;-57
2022/09/06 01:02:35;;;;;;;28.08;21.90;;;14.80;99.90;;;;;;5117297;28;20034;-57
2022/09/06 01:05:02;;;;;;;29.05;21.40;;;14.80;99.90;;;;;;5117210;28;20028;-57
2022/09/06 01:07:37;;;;;;;30.17;21.58;;;14.70;99.90;;;;;;5117406;28;20023;-56
2022/09/06 01:10:23;;;;;;;29.05;20.92;;;14.80;99.90;;;;;;5117057;28;20058;-57
2022/09/06 01:13:01;;;;;;;31.00;21.88;;;14.80;99.90;;;;;;5117080;28;20582;-56
2022/09/06 01:15:36;;;;;;;36.28;23.58;;;14.90;99.90;;;;;;5115789;28;20457;-56
2022/09/06 01:18:37;;;;;;;36.50;24.13;;;14.90;99.90;;;;;;5116897;28;20469;-56
2022/09/06 01:21:40;;;;;;;30.73;23.10;;;14.70;99.90;;;;;;5116244;28;20031;-57
2022/09/06 01:24:24;;;;;;;42.63;25.65;;;14.80;99.90;;;;;;5117057;28;20031;-56
2022/09/06 01:27:01;;;;;;;32.63;24.50;;;14.90;99.90;;;;;;5116795;28;20031;-57
2022/09/06 01:29:54;;;;;;;32.45;23.85;;;14.80;99.90;;;;;;5116769;28;20111;-56
2022/09/06 01:32:59;;;;;;;31.73;23.40;;;14.80;99.90;;;;;;5116864;28;20024;-56
2022/09/06 01:35:40;;;;;;;33.25;22.48;;;14.70;99.90;;;;;;5074745;28;20047;-57
2022/09/06 01:38:07;;;;;;;32.00;22.02;;;14.70;99.90;;;;;;5116670;28;20035;-56
2022/09/06 01:40:36;;;;;;;32.55;22.60;;;14.60;99.90;;;;;;5116532;28;20430;-56
2022/09/06 01:43:05;;;;;;;29.25;21.67;;;14.60;99.90;;;;;;5116116;28;20108;-56
2022/09/06 01:46:02;;;;;;;38.72;26.83;;;14.60;99.90;;;;;;5115230;28;20057;-56
2022/09/06 01:48:50;;;;;;;26.83;23.23;;;14.60;99.90;;;;;;5116358;27;20462;-56
2022/09/06 01:51:36;;;;;;;35.20;24.02;;;14.60;99.90;;;;;;5116118;28;20050;-56
2022/09/06 01:54:14;;;;;;;28.02;22.80;;;14.50;99.90;;;;;;5116473;28;20036;-56
2022/09/06 01:56:56;;;;;;;30.63;22.48;;;14.40;99.90;;;;;;5116390;28;20384;-56
2022/09/06 01:59:21;;;;;;;34.08;23.17;;;14.40;99.90;;;;;;5116220;28;20024;-56
2022/09/06 02:02:08;;;;;;;32.70;22.48;;;14.40;99.90;;;;;;5116185;28;20046;-56
2022/09/06 02:04:40;;;;;;;35.33;22.88;;;14.40;99.90;;;;;;5116078;28;20040;-56
2022/09/06 02:07:24;;;;;;;32.67;24.45;;;14.50;99.90;;;;;;5116194;28;20053;-56
2022/09/06 02:10:15;;;;;;;29.13;23.55;;;14.50;99.90;;;;;;5116389;28;20084;-56
2022/09/06 02:12:46;;;;;;;34.85;24.15;;;14.40;99.90;;;;;;5116029;28;20031;-57
2022/09/06 02:15:23;;;;;;;30.77;24.45;;;14.40;99.90;;;;;;5116024;28;20145;-56
2022/09/06 02:18:09;;;;;;;30.92;24.50;;;14.40;99.90;;;;;;5115880;28;20035;-56
2022/09/06 02:20:50;;;;;;;29.33;23.25;;;14.30;99.90;;;;;;5115585;27;20028;-57
2022/09/06 02:23:19;;;;;;;33.03;22.08;;;14.30;99.90;;;;;;5115830;28;20063;-56
2022/09/06 02:26:09;;;;;;;28.00;21.52;;;14.40;99.90;;;;;;5116006;28;20054;-56
2022/09/06 02:28:35;;;;;;;30.55;21.70;;;14.40;99.90;;;;;;5115735;28;20404;-56
2022/09/06 02:31:09;;;;;;;29.45;21.80;;;14.40;99.90;;;;;;5115401;28;20427;-56
2022/09/06 02:33:36;;;;;;;27.95;20.98;;;14.40;99.90;;;;;;5115770;28;20028;-56
2022/09/06 02:36:07;;;;;;;30.77;20.70;;;14.30;99.90;;;;;;5115768;27;20035;-56
2022/09/06 02:38:36;;;;;;;26.95;20.10;;;14.30;99.90;;;;;;5115447;28;20500;-56
2022/09/06 02:41:03;;;;;;;26.13;19.58;;;14.30;99.90;;;;;;5115521;28;20055;-56
2022/09/06 02:43:29;;;;;;;32.05;20.40;;;14.30;99.90;;;;;;5115156;28;20461;-56
2022/09/06 02:45:55;;;;;;;27.15;20.20;;;14.20;99.90;;;;;;5115401;28;20023;-56
2022/09/06 02:48:21;;;;;;;30.05;21.02;;;14.20;99.90;;;;;;5115608;28;20035;-56
2022/09/06 02:50:47;;;;;;;28.83;20.77;;;14.20;99.90;;;;;;5115116;28;20047;-56
2022/09/06 02:53:14;;;;;;;31.10;21.90;;;14.20;99.90;;;;;;5113952;28;20039;-56
2022/09/06 02:55:41;;;;;;;32.38;21.48;;;14.10;99.90;;;;;;5115340;28;20024;-56
2022/09/06 02:58:09;;;;;;;26.35;20.65;;;14.10;99.90;;;;;;5115238;28;20027;-56
2022/09/06 03:00:36;;;;;;;26.83;20.63;;;14.00;99.90;;;;;;5115091;28;20054;-56
2022/09/06 03:03:02;;;;;;;34.58;20.05;;;14.00;99.90;;;;;;5115045;28;20473;-56
2022/09/06 03:05:29;;;;;;;30.77;21.55;;;14.00;99.90;;;;;;5115010;28;20110;-56
2022/09/06 03:07:55;;;;;;;31.88;22.70;;;14.00;99.90;;;;;;5114954;28;20019;-56
2022/09/06 03:10:24;;;;;;;31.65;22.58;;;14.00;99.90;;;;;;5115009;28;20549;-56
2022/09/06 03:12:51;;;;;;;29.92;23.63;;;13.90;99.90;;;;;;5114823;28;20034;-56
2022/09/06 03:15:17;;;;;;;26.65;21.98;;;13.90;99.90;;;;;;5115050;28;20223;-56
2022/09/06 03:17:43;;;;;;;35.15;21.98;;;13.80;99.90;;;;;;5114936;28;20031;-56
2022/09/06 03:20:11;;;;;;;28.73;23.63;;;13.80;99.90;;;;;;5114858;28;20088;-56
2022/09/06 03:22:38;;;;;;;32.88;22.25;;;13.90;99.90;;;;;;5114858;28;20054;-56
2022/09/06 03:25:08;;;;;;;30.77;22.95;;;13.90;99.90;;;;;;5114857;28;20028;-56
2022/09/06 03:27:34;;;;;;;30.48;22.75;;;13.90;99.90;;;;;;5114808;28;20028;-56
2022/09/06 03:30:00;;;;;;;31.58;23.58;;;13.80;99.90;;;;;;5114905;28;20493;-56
2022/09/06 03:32:26;;;;;;;29.88;22.58;;;13.80;99.90;;;;;;5114799;28;20055;-56
2022/09/06 03:34:52;;;;;;;29.23;22.80;;;13.70;99.90;;;;;;5114704;28;20025;-56
2022/09/06 03:37:18;;;;;;;29.60;21.73;;;13.70;99.90;;;;;;5114835;28;20484;-56
2022/09/06 03:39:44;;;;;;;29.10;21.05;;;13.80;99.90;;;;;;5114886;28;20027;-56
2022/09/06 03:42:10;;;;;;;30.75;23.00;;;13.80;99.90;;;;;;5114715;28;20058;-56
2022/09/06 03:44:36;;;;;;;28.25;22.80;;;13.90;99.90;;;;;;5118763;28;20020;-56
2022/09/06 03:47:03;;;;;;;32.58;22.60;;;13.80;99.90;;;;;;5118877;28;20024;-56
2022/09/06 03:49:29;;;;;;;29.48;22.10;;;13.70;99.90;;;;;;5118424;28;20481;-56
2022/09/06 03:51:55;;;;;;;28.83;23.08;;;13.70;99.90;;;;;;5119208;28;20028;-56
2022/09/06 03:54:21;;;;;;;31.90;22.33;;;13.70;99.90;;;;;;5118608;28;20028;-56
2022/09/06 03:56:46;;;;;;;27.67;22.27;;;13.70;99.90;;;;;;5118682;28;20088;-56
2022/09/06 03:59:12;;;;;;;30.30;22.23;;;13.70;99.90;;;;;;5118620;28;20023;-56
2022/09/06 04:01:38;;;;;;;31.25;22.20;;;13.70;99.90;;;;;;5118579;28;20028;-56
2022/09/06 04:04:04;;;;;;;28.83;22.35;;;13.70;99.90;;;;;;5118212;28;20040;-56
2022/09/06 04:06:30;;;;;;;30.27;22.50;;;13.90;99.90;;;;;;5118487;28;20110;-56
2022/09/06 04:08:56;;;;;;;30.98;22.48;;;13.90;99.90;;;;;;5118283;28;20055;-56
2022/09/06 04:11:22;;;;;;;30.23;21.63;;;13.90;99.90;;;;;;5118479;28;20031;-56
2022/09/06 04:13:48;;;;;;;28.52;22.17;;;14.00;99.90;;;;;;5117047;28;20027;-56
2022/09/06 04:16:14;;;;;;;32.60;21.90;;;14.10;99.90;;;;;;5116950;28;20549;-56
2022/09/06 04:18:40;;;;;;;35.35;23.30;;;14.00;99.90;;;;;;5118583;28;20372;-56
2022/09/06 04:21:06;;;;;;;27.60;22.83;;;13.90;99.90;;;;;;5118311;28;20153;-56
2022/09/06 04:23:32;;;;;;;29.05;23.45;;;14.10;99.90;;;;;;5118238;28;20110;-56
2022/09/06 04:25:58;;;;;;;28.65;23.17;;;14.10;99.90;;;;;;5118063;28;20039;-56
2022/09/06 04:28:25;;;;;;;39.55;25.67;;;14.00;99.90;;;;;;5117700;28;20494;-56
2022/09/06 04:30:58;;;;;;;30.65;24.67;;;14.00;99.90;;;;;;5117947;28;20031;-56
2022/09/06 04:33:24;;;;;;;32.25;24.65;;;14.10;99.90;;;;;;5117926;28;20094;-56
2022/09/06 04:35:52;;;;;;;34.35;24.27;;;14.00;99.90;;;;;;5118115;28;20038;-56
2022/09/06 04:38:18;;;;;;;32.35;23.95;;;13.90;99.90;;;;;;5117653;27;20055;-56
2022/09/06 04:40:44;;;;;;;35.05;25.05;;;14.00;99.90;;;;;;5117673;28;20476;-56
2022/09/06 04:43:10;;;;;;;39.35;27.85;;;14.00;99.90;;;;;;5117538;28;20024;-56
2022/09/06 04:45:36;;;;;;;36.80;26.50;;;14.10;99.90;;;;;;5117401;28;20388;-56
2022/09/06 04:48:02;;;;;;;33.50;24.70;;;14.20;99.90;;;;;;5117629;28;20031;-56
2022/09/06 04:50:28;;;;;;;37.03;26.85;;;14.20;99.90;;;;;;5117309;27;20036;-56
2022/09/06 04:53:04;;;;;;;40.60;26.92;;;14.30;99.90;;;;;;5117271;28;20028;-56
2022/09/06 04:55:30;;;;;;;31.52;25.27;;;14.20;99.90;;;;;;5116183;28;20027;-56
2022/09/06 04:57:59;;;;;;;33.78;27.23;;;14.20;99.90;;;;;;5117421;28;20032;-56
2022/09/06 05:00:30;;;;;;;35.17;26.73;;;14.20;99.90;;;;;;5115940;28;20034;-56
2022/09/06 05:02:56;;;;;;;;;;;14.20;99.90;;;;;;5117729;28;20027;-56
2022/09/06 05:05:22;;;;;;;37.72;25.65;;;14.20;99.90;;;;;;5117346;28;20334;-56
2022/09/06 05:07:53;;;;;;;37.50;26.85;;;14.30;99.90;;;;;;5117008;28;20028;-56
2022/09/06 05:10:19;;;;;;;37.03;28.27;;;14.40;99.90;;;;;;5117180;28;20492;-56
2022/09/06 05:12:50;;;;;;;35.85;26.27;;;14.40;99.90;;;;;;5117245;28;20024;-56
2022/09/06 05:15:17;;;;;;;;;;;14.50;99.90;;;;;;5104665;28;20040;-56
2022/09/06 05:17:43;;;;;;;31.75;24.65;;;14.70;99.90;;;;;;5104458;28;19912;-56
2022/09/06 05:20:11;;;;;;;37.25;25.35;;;14.70;99.90;;;;;;5108561;28;20084;-56
2022/09/06 05:22:37;;;;;;;39.50;27.33;;;14.80;99.90;;;;;;5116829;28;20051;-56
2022/09/06 05:25:03;;;;;;;36.58;27.02;;;14.90;99.90;;;;;;5116761;28;20035;-56
2022/09/06 05:27:29;;;;;;;39.85;28.38;;;15.00;99.90;;;;;;5116842;28;20075;-56
2022/09/06 05:29:55;;;;;;;53.13;30.23;;;15.10;99.90;;;;;;5116792;28;20430;-56
2022/09/06 05:32:21;;;;;;;42.63;28.70;;;15.30;99.90;;;;;;5116566;28;20039;-56
2022/09/06 05:34:47;;;;;;;36.15;27.60;;;15.40;99.90;;;;;;5116066;28;20028;-56
2022/09/06 05:37:13;;;;;;;39.75;27.60;;;15.50;99.90;;;;;;5116720;28;20030;-56
2022/09/06 05:39:39;;;;;;;52.08;30.27;;;15.70;99.90;;;;;;5115280;28;20030;-56
2022/09/06 05:42:05;;;;;;;42.63;28.42;;;15.70;99.90;;;;;;5116394;28;20031;-56
2022/09/06 05:44:35;;;;;;;50.78;33.10;;;15.70;99.90;;;;;;5116288;28;20441;-56
2022/09/06 05:47:01;;;;;;;45.70;31.95;;;15.70;99.90;;;;;;5115668;28;20351;-56
2022/09/06 05:49:31;;;;;;;47.47;32.33;;;15.90;99.90;;;;;;5100746;28;20035;-56
2022/09/06 05:51:57;;;;;;;49.47;30.42;;;16.00;99.90;;;;;;5105460;28;20406;-56
2022/09/06 05:54:23;;;;;;;43.60;30.40;;;16.20;99.90;;;;;;5109775;28;20024;-57
2022/09/06 05:56:49;;;;;;;42.97;31.23;;;16.30;99.90;;;;;;5103082;28;20040;-56
2022/09/06 05:59:15;;;;;;;40.53;30.90;;;16.30;99.90;;;;;;5114308;28;20048;-57
2022/09/06 06:01:59;;;;;;;40.25;30.95;;;16.40;99.90;;;;;;5109249;28;20041;-57
2022/09/06 06:04:25;;;;;;;44.17;31.35;;;16.60;99.90;;;;;;5115683;28;20063;-57
2022/09/06 06:06:51;;;;;;;46.70;30.95;;;16.80;99.90;;;;;;5114472;28;20061;-57
2022/09/06 06:09:17;;;;;;;40.72;30.05;;;16.90;99.90;;;;;;5115684;28;20030;-57
2022/09/06 06:11:43;;;;;;;45.63;30.85;;;17.10;99.90;;;;;;5116283;28;20424;-57
2022/09/06 06:14:09;;;;;;;39.83;29.27;;;17.10;99.90;;;;;;5115784;28;20031;-57
2022/09/06 06:16:35;;;;;;;39.95;28.77;;;17.40;99.90;;;;;;5110728;28;20111;-57
2022/09/06 06:19:03;;;;;;;45.42;30.83;;;17.60;99.90;;;;;;5108426;28;20028;-56
2022/09/06 06:21:32;;;;;;;40.00;28.95;;;17.80;99.90;;;;;;5099106;28;20036;-56
2022/09/06 06:24:00;;;;;;;39.95;28.58;;;17.90;99.90;;;;;;5110185;28;20035;-57
2022/09/06 06:26:28;;;;;;;34.83;27.48;;;18.20;99.90;;;;;;5109759;27;20048;-56
2022/09/06 06:28:56;;;;;;;42.53;29.58;;;18.40;99.90;;;;;;5105385;28;20028;-57
2022/09/06 06:31:22;;;;;;;38.67;28.38;;;18.60;99.90;;;;;;5111854;28;20611;-57
2022/09/06 06:33:49;;;;;;;54.88;29.52;;;19.10;99.90;;;;;;5115526;28;20377;-57
2022/09/06 06:36:15;;;;;;;33.50;26.58;;;18.90;99.90;;;;;;5115385;28;20484;-57
2022/09/06 06:38:43;;;;;;;43.58;27.30;;;19.40;99.90;;;;;;5111907;28;20040;-57
2022/09/06 06:41:12;;;;;;;34.60;27.13;;;19.80;99.90;;;;;;5104251;28;20106;-57
2022/09/06 06:43:38;;;;;;;38.50;26.23;;;20.10;99.90;;;;;;5101663;28;20024;-57
2022/09/06 06:46:05;;;;;;;44.85;28.02;;;20.30;99.90;;;;;;5104819;28;20039;-57
2022/09/06 06:48:31;;;;;;;37.95;26.75;;;20.40;99.90;;;;;;5099277;28;20102;-57
2022/09/06 06:50:57;;;;;;;39.80;25.58;;;20.50;99.90;;;;;;5114898;28;20550;-57
2022/09/06 06:53:23;;;;;;;48.97;28.27;;;20.80;99.90;;;;;;5114899;28;20053;-57
2022/09/06 06:55:49;;;;;;;39.95;24.67;;;20.90;99.90;;;;;;5113077;28;20123;-57
2022/09/06 06:58:18;;;;;;;46.80;25.50;;;21.10;99.90;;;;;;5096567;28;20573;-57
2022/09/06 07:00:45;;;;;;;39.60;25.23;;;21.30;99.90;;;;;;5103326;28;20031;-57
2022/09/06 07:03:11;;;;;;;41.20;23.70;;;21.50;99.90;;;;;;5107765;28;20055;-57
2022/09/06 07:05:39;;;;;;;42.47;24.33;;;21.90;99.90;;;;;;5096254;28;20105;-57
2022/09/06 07:08:06;;;;;;;39.38;25.90;;;21.80;99.70;;;;;;5105550;28;20024;-57
2022/09/06 07:10:33;;;;;;;48.22;25.40;;;21.90;98.40;;;;;;5104889;28;20046;-57
2022/09/06 07:12:59;;;;;;;41.17;26.00;;;22.00;98.20;;;;;;5112208;28;20396;-57
2022/09/06 07:15:25;;;;;;;47.67;25.60;;;22.30;96.70;;;;;;5114759;28;20032;-57
2022/09/06 07:17:52;;;;;;;39.30;24.88;;;22.40;96.90;;;;;;5108403;28;20038;-57
2022/09/06 07:20:19;;;;;;;40.05;24.63;;;22.40;95.80;;;;;;5098238;28;20027;-57
2022/09/06 07:22:45;;;;;;;39.38;25.33;;;22.60;95.40;;;;;;5104742;28;20076;-57
2022/09/06 07:25:12;;;;;;;45.00;26.17;;;22.50;95.00;;;;;;5113729;28;20027;-58
2022/09/06 07:27:38;;;;;;;40.65;24.27;;;22.70;96.20;;;;;;5111699;28;20354;-57
2022/09/06 07:30:05;;;;;;;36.53;23.73;;;23.00;94.60;;;;;;5106253;28;20573;-57
2022/09/06 07:32:33;;;;;;;38.88;23.92;;;23.30;92.90;;;;;;5102013;28;20032;-58
2022/09/06 07:34:59;;;;;;;32.78;23.23;;;23.50;92.20;;;;;;5113775;28;20016;-58
2022/09/06 07:37:25;;;;;;;34.97;22.85;;;23.40;91.60;;;;;;5112672;28;20419;-58
2022/09/06 07:39:51;;;;;;;41.08;24.00;;;23.70;91.60;;;;;;5103058;28;20042;-58
2022/09/06 07:42:18;;;;;;;32.60;21.90;;;24.20;91.30;;;;;;5112644;28;20044;-58
2022/09/06 07:44:44;;;;;;;34.38;22.88;;;24.40;90.70;;;;;;5114007;28;20024;-58
2022/09/06 07:47:11;;;;;;;39.25;22.85;;;24.80;89.00;;;;;;5109147;28;20118;-58
2022/09/06 07:49:37;;;;;;;38.00;20.92;;;25.20;86.80;;;;;;5111506;28;20039;-58
2022/09/06 07:52:03;;;;;;;31.50;21.73;;;25.50;84.10;;;;;;5112581;28;20041;-58
2022/09/06 07:54:29;;;;;;;36.40;21.80;;;25.40;80.70;;;;;;5112776;28;20397;-58
2022/09/06 07:56:55;;;;;;;28.90;20.75;;;25.80;81.70;;;;;;5114128;28;20499;-58
2022/09/06 07:59:21;;;;;;;33.55;19.52;;;26.20;78.40;;;;;;5113360;28;20075;-58
2022/09/06 08:01:47;;;;;;;25.55;19.98;;;26.40;78.60;;;;;;5112652;28;20063;-58
2022/09/06 08:04:14;;;;;;;25.88;18.63;;;26.20;77.90;;;;;;5104399;28;20485;-58
2022/09/06 08:06:46;;;;;;;32.42;20.70;;;26.10;76.90;;;;;;5110081;28;20016;-58
2022/09/06 08:09:13;;;;;;;31.95;18.45;;;26.30;76.80;;;;;;5111507;28;20465;-58
2022/09/06 08:11:39;;;;;;;29.15;18.35;;;26.70;76.10;;;;;;5114121;28;20354;-58
2022/09/06 08:14:07;;;;;;;26.10;18.73;;;27.30;73.90;;;;;;5113960;28;20064;-58
2022/09/06 08:16:36;;;;;;;29.25;19.30;;;27.30;73.60;;;;;;5113315;28;20027;-58
2022/09/06 08:19:07;;;;;;;38.42;20.45;;;27.50;71.00;;;;;;5106616;28;20136;-58
2022/09/06 08:21:36;;;;;;;39.30;20.70;;;27.50;71.10;;;;;;5102228;28;20039;-58
2022/09/06 08:24:05;;;;;;;31.33;18.58;;;27.60;71.60;;;;;;5106550;28;20024;-58
2022/09/06 08:26:33;;;;;;;28.23;17.80;;;27.60;72.40;;;;;;5112734;28;20035;-58
2022/09/06 08:29:01;;;;;;;23.40;17.98;;;27.90;69.10;;;;;;5109993;27;20022;-58
2022/09/06 08:31:29;;;;;;;28.02;19.67;;;28.20;70.70;;;;;;5115434;27;20042;-58
2022/09/06 08:33:56;;;;;;;32.90;18.10;;;27.60;70.70;;;;;;5113503;28;20035;-58
2022/09/06 08:36:26;;;;;;;21.40;17.27;;;28.30;71.20;;;;;;5116654;28;20027;-58
2022/09/06 08:38:52;;;;;;;24.13;18.30;;;28.60;69.50;;;;;;5114907;28;20110;-58
2022/09/06 08:41:30;;;;;;;26.27;18.55;;;27.90;71.70;;;;;;5114817;28;20028;-58
2022/09/06 08:44:07;;;;;;;32.70;19.35;;;28.10;70.70;;;;;;5114070;28;20431;-58
2022/09/06 08:46:44;;;;;;;28.60;16.90;;;28.50;70.90;;;;;;5114078;28;20024;-59
2022/09/06 08:49:11;;;;;;;23.15;16.83;;;29.10;67.20;;;;;;5113641;28;20020;-59
2022/09/06 08:51:50;;;;;;;24.00;16.30;;;29.10;69.40;;;;;;5114977;28;20055;-58
2022/09/06 08:54:48;;;;;;;24.88;16.10;;;29.20;65.70;;;;;;5114474;28;20027;-59
2022/09/06 08:57:25;;;;;;;18.30;15.48;;;29.50;65.60;;;;;;5097443;28;20032;-58
2022/09/06 08:59:56;;;;;;;22.17;15.80;;;29.90;65.50;;;;;;5113565;28;20059;-59
2022/09/06 09:02:22;;;;;;;23.27;17.15;;;29.90;62.80;;;;;;5113855;28;20077;-59
2022/09/06 09:04:59;;;;;;;22.73;17.13;;;30.20;63.70;;;;;;5113550;28;20057;-58
2022/09/06 09:08:04;;;;;;;22.80;17.27;;;30.10;61.90;;;;;;5112765;28;20118;-59
2022/09/06 09:10:36;;;;;;;24.75;17.48;;;30.10;60.40;;;;;;5059298;28;20032;-59
2022/09/06 09:13:06;;;;;;;25.48;18.88;;;30.20;60.90;;;;;;5113682;28;20380;-59
2022/09/06 09:15:35;;;;;;;29.42;18.58;;;30.50;59.90;;;;;;5109930;28;20031;-59
2022/09/06 09:18:02;;;;;;;24.90;18.20;;;30.40;58.30;;;;;;5109700;28;20163;-59
2022/09/06 09:20:28;;;;;;;26.38;16.90;;;30.40;60.60;;;;;;5111535;28;20073;-59
2022/09/06 09:22:55;;;;;;;24.00;17.95;;;30.90;59.50;;;;;;5114568;28;20061;-59
2022/09/06 09:25:23;;;;;;;24.60;17.15;;;31.00;59.30;;;;;;5114629;28;20106;-59
2022/09/06 09:27:56;;;;;;;27.63;18.13;;;31.20;58.30;;;;;;5115303;28;20046;-59
2022/09/06 09:30:43;;;;;;;23.30;17.88;;;31.60;56.80;;;;;;5115214;28;20023;-59
2022/09/06 09:33:32;;;;;;;45.72;18.33;;;31.60;55.90;;;;;;5112926;28;20031;-59
2022/09/06 09:36:01;;;;;;;23.58;17.70;;;31.80;55.80;;;;;;5095498;28;20031;-59
2022/09/06 09:38:29;;;;;;;21.55;15.57;;;32.40;56.80;;;;;;5110266;28;20030;-59
2022/09/06 09:41:00;;;;;;;19.63;16.95;;;32.50;53.20;;;;;;5113524;28;20105;-59
2022/09/06 09:43:53;;;;;;;19.60;15.15;;;32.20;52.20;;;;;;5111415;28;20039;-59
2022/09/06 09:46:21;;;;;;;19.58;15.38;;;31.90;53.00;;;;;;5116131;27;20031;-59
2022/09/06 09:49:05;;;;;;;15.68;14.07;;;32.00;56.40;;;;;;5109053;27;20027;-59
2022/09/06 09:51:43;;;;;;;16.63;14.57;;;32.20;54.80;;;;;;5104429;28;20119;-59
2022/09/06 09:54:12;;;;;;;15.10;13.60;;;32.70;53.50;;;;;;5112430;27;20118;-59
2022/09/06 09:56:46;;;;;;;16.20;14.43;;;32.70;51.20;;;;;;5111138;28;20113;-59
2022/09/06 09:59:45;;;;;;;18.90;14.20;;;32.40;51.40;;;;;;5114710;28;20030;-59
2022/09/06 10:02:34;;;;;;;17.85;14.23;;;32.80;52.30;;;;;;5105449;28;20028;-59
2022/09/06 10:05:06;;;;;;;20.98;13.73;;;32.60;52.50;;;;;;5108022;27;20054;-59
2022/09/06 10:07:33;;;;;;;16.52;13.93;;;32.70;49.30;;;;;;5119094;27;20348;-59
2022/09/06 10:10:06;;;;;;;15.63;13.68;;;32.30;49.60;;;;;;5119974;27;20026;-59
2022/09/06 10:12:34;;;;;;;14.80;13.40;;;32.20;49.50;;;;;;5095415;28;20032;-59
2022/09/06 10:15:01;;;;;;;17.70;13.48;;;32.30;48.00;;;;;;5095215;28;20111;-59
2022/09/06 10:17:47;;;;;;;22.33;14.52;;;32.30;48.60;;;;;;5094887;28;20047;-59
2022/09/06 10:20:13;;;;;;;19.95;14.65;;;32.30;50.50;;;;;;5107995;28;20031;-59
2022/09/06 10:23:01;;;;;;;18.27;14.10;;;32.80;48.20;;;;;;5110146;28;20473;-59
2022/09/06 10:26:05;;;;;;;21.38;12.07;;;33.40;48.80;;;;;;5112872;28;20023;-59
2022/09/06 10:28:35;;;;;;;18.00;11.82;;;32.60;44.80;;;;;;5103396;28;20039;-59
2022/09/06 10:31:25;;;;;;;12.68;11.38;;;33.10;48.00;;;;;;5098942;28;20024;-59
2022/09/06 10:34:18;;;;;;;16.42;12.15;;;32.80;46.10;;;;;;5110884;28;20085;-59
2022/09/06 10:36:44;;;;;;;14.52;11.13;;;32.70;47.60;;;;;;5104213;28;20023;-59
2022/09/06 10:39:28;;;;;;;10.95;9.90;;;32.90;45.70;;;;;;5114876;27;20019;-59
2022/09/06 10:42:12;;;;;;;14.02;10.63;;;32.80;42.10;;;;;;5122689;27;20043;-59
2022/09/06 10:44:44;;;;;;;15.32;9.95;;;32.70;40.20;;;;;;5114349;28;20487;-59
2022/09/06 10:47:13;;;;;;;13.32;11.00;;;32.90;41.00;;;;;;5109026;28;20062;-59
2022/09/06 10:49:47;;;;;;;12.52;10.52;;;32.20;42.00;;;;;;5103581;28;20104;-59
2022/09/06 10:52:24;;;;;;;21.45;11.73;;;32.20;42.80;;;;;;5110087;28;20426;-59
2022/09/06 10:54:52;;;;;;;11.93;9.18;;;33.00;41.90;;;;;;5115745;28;20032;-59
2022/09/06 10:57:26;;;;;;;11.82;8.82;;;33.10;40.00;;;;;;5111734;28;20045;-59
2022/09/06 11:00:00;;;;;;;10.95;9.35;;;33.20;40.40;;;;;;5113243;28;20298;-59
2022/09/06 11:02:32;;;;;;;9.32;8.43;;;32.50;38.50;;;;;;5110394;28;20045;-59
2022/09/06 11:05:10;;;;;;;13.90;8.60;;;32.70;39.10;;;;;;5111673;28;20030;-59
2022/09/06 11:07:48;;;;;;;8.57;7.63;;;32.80;37.90;;;;;;5111326;28;20400;-59
2022/09/06 11:10:25;;;;;;;11.75;9.15;;;32.00;36.70;;;;;;5110435;28;20067;-59
2022/09/06 11:13:07;;;;;;;7.00;6.40;;;32.30;38.00;;;;;;5109493;28;20035;-59
2022/09/06 11:15:45;;;;;;;8.38;7.28;;;32.80;38.00;;;;;;5111712;28;20126;-59
2022/09/06 11:18:37;;;;;;;11.05;6.80;;;32.90;35.00;;;;;;5112318;28;20044;-59
2022/09/06 11:21:13;;;;;;;7.93;7.13;;;33.10;37.80;;;;;;5112815;28;20476;-59
2022/09/06 11:24:10;;;;;;;12.00;8.10;;;33.00;35.80;;;;;;5112110;28;20081;-59
2022/09/06 11:26:54;;;;;;;8.50;7.20;;;33.30;36.70;;;;;;5110787;28;20123;-59
2022/09/06 11:29:22;;;;;;;11.32;7.90;;;32.40;34.60;;;;;;5110122;28;20020;-59
2022/09/06 11:32:03;;;;;;;9.70;7.72;;;32.80;36.60;;;;;;5111504;28;20030;-59
2022/09/06 11:34:32;;;;;;;14.45;8.07;;;33.30;35.50;;;;;;5100984;28;20106;-59
2022/09/06 11:37:06;;;;;;;15.18;8.20;;;33.30;38.70;;;;;;5109070;28;20024;-59
2022/09/06 11:39:41;;;;;;;7.45;6.80;;;33.40;32.30;;;;;;5100290;28;20538;-59
2022/09/06 11:42:09;;;;;;;9.60;7.65;;;33.10;33.00;;;;;;5100200;28;20085;-59
2022/09/06 11:44:56;;;;;;;8.52;6.55;;;33.70;34.50;;;;;;5106925;28;20023;-59
2022/09/06 11:47:47;;;;;;;8.10;7.10;;;33.50;33.60;;;;;;5111620;28;20020;-59
2022/09/06 11:50:25;;;;;;;13.48;8.13;;;33.90;35.50;;;;;;5111073;28;20130;-59
2022/09/06 11:52:55;;;;;;;9.52;6.45;;;34.20;34.30;;;;;;5106682;28;20031;-59
2022/09/06 11:55:23;;;;;;;7.80;6.63;;;34.40;34.00;;;;;;5099668;28;20036;-59
2022/09/06 11:58:01;;;;;;;7.95;6.97;;;34.40;33.20;;;;;;5092200;28;20024;-59
2022/09/06 12:00:28;;;;;;;11.50;6.95;;;34.40;32.30;;;;;;5099656;28;20591;-59
2022/09/06 12:02:54;;;;;;;8.57;7.38;;;34.90;34.90;;;;;;5104870;28;20036;-59
2022/09/06 12:05:27;;;;;;;18.23;8.73;;;35.00;33.80;;;;;;5107679;28;20721;-59
2022/09/06 12:08:21;;;;;;;8.20;6.32;;;34.90;32.50;;;;;;5107704;28;20047;-59
2022/09/06 12:11:04;;;;;;;9.32;6.68;;;34.50;31.50;;;;;;5103425;28;20024;-59
2022/09/06 12:13:45;;;;;;;6.82;5.80;;;34.80;32.20;;;;;;5126663;27;20043;-59
2022/09/06 12:16:13;;;;;;;8.27;6.65;;;34.60;31.00;;;;;;5115690;28;20027;-59
2022/09/06 12:18:42;;;;;;;12.93;7.22;;;34.50;34.10;;;;;;5114382;28;20057;-59
2022/09/06 12:21:32;;;;;;;7.40;6.35;;;34.20;31.50;;;;;;5110982;28;20504;-59
2022/09/06 12:23:59;;;;;;;10.60;5.90;;;34.30;32.50;;;;;;5107222;28;20030;-59
2022/09/06 12:26:48;;;;;;;14.02;8.02;;;33.70;31.70;;;;;;5102476;28;20024;-59
2022/09/06 12:29:14;;;;;;;12.05;7.25;;;32.90;33.30;;;;;;5101901;28;20031;-59
2022/09/06 12:31:51;;;;;;;12.73;7.38;;;32.50;33.50;;;;;;5111346;28;20106;-59
2022/09/06 12:34:34;;;;;;;7.53;6.80;;;32.60;34.20;;;;;;5113049;28;20117;-59
2022/09/06 12:37:03;;;;;;;8.90;7.22;;;33.20;37.60;;;;;;5108049;28;20081;-59
2022/09/06 12:39:38;;;;;;;8.03;6.70;;;32.90;37.70;;;;;;5107509;28;20465;-59
2022/09/06 12:42:12;;;;;;;9.63;8.63;;;33.60;36.20;;;;;;5113717;28;20038;-59
2022/09/06 12:44:42;;;;;;;13.25;7.40;;;33.70;35.20;;;;;;5117206;28;20032;-59
2022/09/06 12:47:13;;;;;;;9.95;7.95;;;34.00;36.00;;;;;;5116410;28;20038;-59
2022/09/06 12:49:40;;;;;;;14.10;6.85;;;33.80;32.80;;;;;;5116023;28;20073;-59
2022/09/06 12:52:12;;;;;;;9.77;6.70;;;34.10;32.00;;;;;;5113086;28;20488;-59